createdAt,value
2018-10-19T00:01:47.360Z,98507.43
2018-10-19T00:04:19.623Z,98514.13
2018-10-19T00:06:51.912Z,98510.50
2018-10-19T00:09:24.185Z,98510.20
2018-10-19T00:11:56.506Z,98507.92
2018-10-19T00:14:28.781Z,98508.92
2018-10-19T00:17:01.091Z,98502.61
2018-10-19T00:19:33.302Z,98503.12
2018-10-19T00:22:06.269Z,98504.87
2018-10-19T00:24:38.512Z,98502.11
2018-10-19T00:27:10.855Z,98487.84
2018-10-19T00:29:43.408Z,98499.86
2018-10-19T00:32:16.041Z,98504.00
2018-10-19T00:34:48.489Z,98505.16
2018-10-19T00:37:21.245Z,98501.13
2018-10-19T00:39:53.481Z,98504.29
2018-10-19T00:42:25.785Z,98500.26
2018-10-19T00:44:58.053Z,98496.13
2018-10-19T00:47:30.637Z,98497.31
2018-10-19T00:50:03.106Z,98495.62
2018-10-19T00:52:35.502Z,98498.59
2018-10-19T00:55:07.798Z,98496.42
2018-10-19T00:57:40.064Z,98490.63
2018-10-19T01:00:12.310Z,98497.31
2018-10-19T01:02:44.607Z,98499.68
2018-10-19T01:05:16.938Z,98501.77
2018-10-19T01:07:49.190Z,98504.31
2018-10-19T01:10:22.469Z,98487.39
2018-10-19T01:12:58.895Z,98501.53
2018-10-19T01:15:31.205Z,98494.94
2018-10-19T01:18:03.724Z,98498.02
2018-10-19T01:20:36.069Z,98497.99
2018-10-19T01:23:08.366Z,98503.31
2018-10-19T01:25:41.801Z,98504.40
2018-10-19T01:28:14.111Z,98509.60
2018-10-19T01:30:46.406Z,98501.05
2018-10-19T01:33:18.657Z,98503.59
2018-10-19T01:35:51.025Z,98507.95
2018-10-19T01:38:23.306Z,98509.91
2018-10-19T01:40:55.659Z,98509.14
2018-10-19T01:43:27.889Z,98507.27
2018-10-19T01:46:00.170Z,98513.64
2018-10-19T01:48:32.470Z,98513.16
2018-10-19T01:51:04.787Z,98507.84
2018-10-19T01:53:37.034Z,98513.33
2018-10-19T01:56:09.329Z,98510.97
2018-10-19T01:58:41.575Z,98508.50
2018-10-19T02:01:13.852Z,98507.22
2018-10-19T02:03:46.270Z,98501.59
2018-10-19T02:06:18.608Z,98508.38
2018-10-19T02:08:50.882Z,98509.38
2018-10-19T02:11:23.156Z,98506.62
2018-10-19T02:13:55.407Z,98502.38
2018-10-19T02:16:27.669Z,98507.49
2018-10-19T02:18:59.913Z,98499.37
2018-10-19T02:21:32.246Z,98504.77
2018-10-19T02:24:04.574Z,98507.80
2018-10-19T02:26:37.249Z,98507.63
2018-10-19T02:29:09.543Z,98501.05
2018-10-19T02:31:41.839Z,98500.25
2018-10-19T02:34:14.216Z,98505.08
2018-10-19T02:36:46.525Z,98496.80
2018-10-19T02:39:18.907Z,98497.69
2018-10-19T02:41:51.113Z,98502.80
2018-10-19T02:44:23.378Z,98501.31
2018-10-19T02:46:55.850Z,98502.08
2018-10-19T02:49:28.049Z,98496.60
2018-10-19T02:52:00.317Z,98493.65
2018-10-19T02:54:32.837Z,98493.05
2018-10-19T02:57:05.515Z,98495.22
2018-10-19T02:59:37.751Z,98493.45
2018-10-19T03:02:10.008Z,98491.37
2018-10-19T03:04:42.341Z,98489.69
2018-10-19T03:07:14.597Z,98488.12
2018-10-19T03:09:46.868Z,98484.92
2018-10-19T03:12:19.108Z,98478.53
2018-10-19T03:14:51.408Z,98476.78
2018-10-19T03:17:23.682Z,98485.53
2018-10-19T03:19:56.186Z,98486.64
2018-10-19T03:22:28.437Z,98491.24
2018-10-19T03:25:00.680Z,98497.83
2018-10-19T03:27:32.945Z,98497.63
2018-10-19T03:30:06.049Z,98487.59
2018-10-19T03:32:38.358Z,98493.19
2018-10-19T03:35:10.690Z,98495.66
2018-10-19T03:37:42.881Z,98498.89
2018-10-19T03:40:15.179Z,98502.60
2018-10-19T03:42:47.437Z,98506.27
2018-10-19T03:45:19.730Z,98510.08
2018-10-19T03:47:51.978Z,98508.71
2018-10-19T03:50:24.370Z,98510.35
2018-10-19T03:52:56.814Z,98508.25
2018-10-19T03:55:29.190Z,98513.77
2018-10-19T03:58:01.459Z,98514.77
2018-10-19T04:00:33.873Z,98512.34
2018-10-19T04:03:06.191Z,98512.31
2018-10-19T04:05:38.525Z,98514.84
2018-10-19T04:08:10.805Z,98514.89
2018-10-19T04:10:43.040Z,98509.13
2018-10-19T04:13:15.336Z,98508.58
2018-10-19T04:15:47.579Z,98510.95
2018-10-19T04:18:19.841Z,98503.02
2018-10-19T04:20:52.158Z,98501.09
2018-10-19T04:23:24.409Z,98511.28
2018-10-19T04:25:56.683Z,98516.11
2018-10-19T04:28:28.966Z,98515.35
2018-10-19T04:31:01.432Z,98522.00
2018-10-19T04:33:33.753Z,98517.20
2018-10-19T04:36:06.009Z,98518.75
2018-10-19T04:38:38.272Z,98524.70
2018-10-19T04:41:10.683Z,98521.20
2018-10-19T04:43:43.029Z,98528.36
2018-10-19T04:46:15.306Z,98524.81
2018-10-19T04:48:47.616Z,98524.59
2018-10-19T04:51:19.951Z,98530.80
2018-10-19T04:53:52.376Z,98530.09
2018-10-19T04:56:24.529Z,98536.69
2018-10-19T04:58:56.922Z,98537.78
2018-10-19T05:01:29.121Z,98533.12
2018-10-19T05:04:01.435Z,98543.52
2018-10-19T05:06:34.026Z,98537.40
2018-10-19T05:09:08.652Z,98536.70
2018-10-19T05:11:41.001Z,98541.09
2018-10-19T05:14:13.502Z,98542.50
2018-10-19T05:16:45.717Z,98547.34
2018-10-19T05:19:18.050Z,98547.73
2018-10-19T05:21:50.313Z,98553.89
2018-10-19T05:24:22.696Z,98549.94
2018-10-19T05:26:54.973Z,98557.42
2018-10-19T05:29:27.322Z,98553.28
2018-10-19T05:31:59.750Z,98553.59
2018-10-19T05:34:32.014Z,98564.02
2018-10-19T05:37:04.586Z,98565.38
2018-10-19T05:39:36.864Z,98565.77
2018-10-19T05:42:09.281Z,98558.33
2018-10-19T05:44:41.565Z,98567.92
2018-10-19T05:47:14.057Z,98565.41
2018-10-19T05:49:46.350Z,98566.08
2018-10-19T05:52:18.658Z,98575.17
2018-10-19T05:54:50.947Z,98575.27
2018-10-19T05:57:23.236Z,98574.88
2018-10-19T05:59:55.625Z,98579.97
2018-10-19T06:02:28.002Z,98585.08
2018-10-19T06:05:00.599Z,98589.69
2018-10-19T06:07:32.892Z,98596.55
2018-10-19T06:10:05.886Z,98598.95
2018-10-19T06:12:38.243Z,98602.16
2018-10-19T06:15:10.538Z,98600.98
2018-10-19T06:17:42.826Z,98599.44
2018-10-19T06:20:15.293Z,98609.31
2018-10-19T06:22:47.540Z,98609.31
2018-10-19T06:25:19.854Z,98603.02
2018-10-19T06:27:52.212Z,98610.46
2018-10-19T06:30:24.555Z,98614.34
2018-10-19T06:32:56.853Z,98620.02
2018-10-19T06:35:29.118Z,98620.95
2018-10-19T06:38:01.416Z,98627.33
2018-10-19T06:40:33.831Z,98638.77
2018-10-19T06:43:06.190Z,98632.95
2018-10-19T06:45:38.501Z,98637.72
2018-10-19T06:48:10.875Z,98644.09
2018-10-19T06:50:43.154Z,98632.39
2018-10-19T06:53:15.496Z,98637.98
2018-10-19T06:55:47.722Z,98641.32
2018-10-19T06:58:20.018Z,98647.83
2018-10-19T07:00:52.352Z,98649.64
2018-10-19T07:03:24.637Z,98650.66
2018-10-19T07:05:57.017Z,98652.42
2018-10-19T07:08:29.617Z,98656.55
2018-10-19T07:11:01.933Z,98663.02
2018-10-19T07:13:34.526Z,98660.59
2018-10-19T07:16:06.838Z,98669.75
2018-10-19T07:18:39.136Z,98664.75
2018-10-19T07:21:11.441Z,98669.50
2018-10-19T07:23:43.713Z,98664.59
2018-10-19T07:26:16.203Z,98665.66
2018-10-19T07:28:48.474Z,98663.98
2018-10-19T07:31:20.769Z,98668.05
2018-10-19T07:33:53.803Z,98667.80
2018-10-19T07:36:26.189Z,98670.98
2018-10-19T07:38:58.429Z,98666.78
2018-10-19T07:41:30.697Z,98667.91
2018-10-19T07:44:03.100Z,98663.52
2018-10-19T07:46:35.456Z,98671.80
2018-10-19T07:49:07.781Z,98676.38
2018-10-19T07:51:40.170Z,98682.58
2018-10-19T07:54:12.602Z,98684.24
2018-10-19T07:56:45.180Z,98682.09
2018-10-19T07:59:17.528Z,98681.21
2018-10-19T08:01:49.907Z,98671.19
2018-10-19T08:04:22.354Z,98674.74
2018-10-19T08:06:55.218Z,98674.63
2018-10-19T08:09:27.530Z,98680.34
2018-10-19T08:11:59.882Z,98672.50
2018-10-19T08:14:32.298Z,98680.87
2018-10-19T08:17:04.817Z,98673.98
2018-10-19T08:19:37.161Z,98674.72
2018-10-19T08:22:09.585Z,98676.63
2018-10-19T08:24:42.031Z,98664.45
2018-10-19T08:27:14.357Z,98672.16
2018-10-19T08:29:46.664Z,98673.66
2018-10-19T08:32:18.970Z,98670.28
2018-10-19T08:34:51.292Z,98664.66
2018-10-19T08:37:23.869Z,98670.67
2018-10-19T08:39:56.246Z,98674.87
2018-10-19T08:42:28.797Z,98671.08
2018-10-19T08:45:01.204Z,98674.50
2018-10-19T08:47:33.471Z,98677.03
2018-10-19T08:50:06.364Z,98675.23
2018-10-19T08:52:38.707Z,98677.54
2018-10-19T08:55:11.111Z,98671.33
2018-10-19T08:57:43.388Z,98676.97
2018-10-19T09:00:15.747Z,98673.70
2018-10-19T09:02:48.135Z,98669.27
2018-10-19T09:05:20.446Z,98675.80
2018-10-19T09:07:52.957Z,98673.05
2018-10-19T09:10:25.321Z,98671.95
2018-10-19T09:12:57.872Z,98678.55
2018-10-19T09:15:30.086Z,98673.88
2018-10-19T09:18:02.389Z,98672.65
2018-10-19T09:20:34.758Z,98671.34
2018-10-19T09:23:07.069Z,98674.36
2018-10-19T09:25:39.408Z,98672.75
2018-10-19T09:28:11.789Z,98664.33
2018-10-19T09:30:44.122Z,98669.91
2018-10-19T09:33:16.494Z,98666.80
2018-10-19T09:35:48.761Z,98664.59
2018-10-19T09:38:21.050Z,98666.05
2018-10-19T09:40:53.429Z,98669.27
2018-10-19T09:43:25.820Z,98669.50
2018-10-19T09:45:58.085Z,98671.45
2018-10-19T09:48:30.429Z,98672.11
2018-10-19T09:51:02.812Z,98665.38
2018-10-19T09:53:35.061Z,98663.20
2018-10-19T09:56:07.406Z,98661.53
2018-10-19T09:58:39.686Z,98666.27
2018-10-19T10:01:17.645Z,98661.36
2018-10-19T10:03:49.989Z,98656.22
2018-10-19T10:06:22.286Z,98660.65
2018-10-19T10:08:54.829Z,98651.84
2018-10-19T10:11:27.258Z,98651.84
2018-10-19T10:13:59.694Z,98654.09
2018-10-19T10:16:31.978Z,98652.30
2018-10-19T10:19:04.520Z,98655.55
2018-10-19T10:21:36.768Z,98650.02
2018-10-19T10:24:09.096Z,98647.64
2018-10-19T10:26:41.357Z,98647.09
2018-10-19T10:29:13.825Z,98644.52
2018-10-19T10:31:46.114Z,98633.59
2018-10-19T10:34:18.435Z,98633.36
2018-10-19T10:36:50.730Z,98644.69
2018-10-19T10:39:23.175Z,98637.55
2018-10-19T10:41:55.658Z,98636.05
2018-10-19T10:44:28.024Z,98637.56
2018-10-19T10:47:00.396Z,98633.30
2018-10-19T10:49:32.786Z,98626.80
2018-10-19T10:52:05.949Z,98627.95
2018-10-19T10:54:38.266Z,98626.89
2018-10-19T10:57:10.562Z,98618.62
2018-10-19T10:59:42.889Z,98619.69
2018-10-19T11:02:15.201Z,98608.05
2018-10-19T11:04:47.505Z,98609.28
2018-10-19T11:07:19.834Z,98604.18
2018-10-19T11:09:52.071Z,98601.51
2018-10-19T11:12:24.506Z,98606.94
2018-10-19T11:14:56.845Z,98609.98
2018-10-19T11:17:29.160Z,98602.48
2018-10-19T11:20:01.570Z,98601.03
2018-10-19T11:22:33.973Z,98602.77
2018-10-19T11:25:06.433Z,98594.14
2018-10-19T11:27:38.770Z,98595.92
2018-10-19T11:30:11.128Z,98592.38
2018-10-19T11:32:43.408Z,98592.80
2018-10-19T11:35:15.714Z,98591.75
2018-10-19T11:37:48.036Z,98583.35
2018-10-19T11:40:27.719Z,98579.00
2018-10-19T11:43:00.209Z,98575.06
2018-10-19T11:45:33.426Z,98572.02
2018-10-19T11:48:05.763Z,98571.17
2018-10-19T11:50:38.060Z,98562.88
2018-10-19T11:53:10.365Z,98564.59
2018-10-19T11:55:42.694Z,98559.83
2018-10-19T11:58:14.979Z,98559.76
2018-10-19T12:00:47.415Z,98546.59
2018-10-19T12:03:19.722Z,98540.23
2018-10-19T12:05:52.204Z,98548.81
2018-10-19T12:08:24.653Z,98551.59
2018-10-19T12:10:57.171Z,98548.08
2018-10-19T12:13:29.436Z,98545.97
2018-10-19T12:16:02.138Z,98536.08
2018-10-19T12:18:34.433Z,98545.87
2018-10-19T12:21:07.150Z,98539.36
2018-10-19T12:23:39.464Z,98540.66
2018-10-19T12:26:11.859Z,98542.44
2018-10-19T12:28:44.191Z,98535.55
2018-10-19T12:31:16.601Z,98528.06
2018-10-19T12:33:48.937Z,98528.48
2018-10-19T12:36:21.441Z,98527.12
2018-10-19T12:38:53.858Z,98530.19
2018-10-19T12:41:26.215Z,98524.95
2018-10-19T12:43:58.582Z,98525.64
2018-10-19T12:46:43.321Z,98520.14
2018-10-19T12:49:18.219Z,98515.45
2018-10-19T12:51:50.432Z,98522.20
2018-10-19T12:54:22.763Z,98518.62
2018-10-19T12:56:55.125Z,98516.73
2018-10-19T12:59:27.413Z,98513.78
2018-10-19T13:01:59.764Z,98513.52
2018-10-19T13:04:32.155Z,98513.46
2018-10-19T13:07:05.089Z,98521.66
2018-10-19T13:09:37.467Z,98517.34
2018-10-19T13:12:09.964Z,98513.83
2018-10-19T13:14:42.325Z,98514.83
2018-10-19T13:17:14.856Z,98519.82
2018-10-19T13:19:47.411Z,98521.34
2018-10-19T13:22:19.784Z,98514.05
2018-10-19T13:24:52.197Z,98511.64
2018-10-19T13:27:24.638Z,98511.64
2018-10-19T13:29:57.046Z,98511.28
2018-10-19T13:32:29.382Z,98510.69
2018-10-19T13:35:01.733Z,98515.50
2018-10-19T13:37:34.051Z,98507.13
2018-10-19T13:40:06.450Z,98514.05
2018-10-19T13:42:39.069Z,98510.68
2018-10-19T13:45:11.768Z,98512.59
2018-10-19T13:47:44.001Z,98514.34
2018-10-19T13:50:16.340Z,98519.03
2018-10-19T13:52:48.639Z,98509.41
2018-10-19T13:55:21.388Z,98509.31
2018-10-19T13:57:54.223Z,98504.45
2018-10-19T14:00:27.142Z,98507.31
2018-10-19T14:02:59.534Z,98503.42
2018-10-19T14:05:32.006Z,98498.17
2018-10-19T14:08:04.295Z,98494.28
2018-10-19T14:10:36.774Z,98493.91
2018-10-19T14:13:10.552Z,98489.02
2018-10-19T14:15:42.997Z,98498.75
2018-10-19T14:18:15.313Z,98495.70
2018-10-19T14:20:47.663Z,98495.25
2018-10-19T14:25:16.782Z,98488.19
2018-10-19T14:27:49.086Z,98486.31
2018-10-19T14:30:21.460Z,98489.12
2018-10-19T14:32:53.810Z,98488.61
2018-10-19T14:35:26.758Z,98485.05
2018-10-19T14:37:59.178Z,98490.23
2018-10-19T14:40:31.555Z,98487.67
2018-10-19T14:43:03.971Z,98493.66
2018-10-19T14:45:36.512Z,98492.14
2018-10-19T14:48:08.836Z,98495.45
2018-10-19T14:50:41.219Z,98494.64
2018-10-19T14:53:13.610Z,98501.16
2018-10-19T14:55:45.909Z,98501.64
2018-10-19T14:58:18.430Z,98500.44
2018-10-19T15:00:50.838Z,98505.05
2018-10-19T15:03:23.263Z,98509.61
2018-10-19T15:05:55.638Z,98511.94
2018-10-19T15:08:28.163Z,98505.33
2018-10-19T15:11:00.683Z,98510.80
2018-10-19T15:13:33.062Z,98506.91
2018-10-19T15:16:05.383Z,98506.81
2018-10-19T15:18:37.931Z,98509.30
2018-10-19T15:21:10.299Z,98507.87
2018-10-19T15:23:42.603Z,98507.73
2018-10-19T15:26:14.998Z,98510.09
2018-10-19T15:28:47.649Z,98512.58
2018-10-19T15:31:19.934Z,98512.52
2018-10-19T15:33:52.337Z,98512.83
2018-10-19T15:36:24.772Z,98515.35
2018-10-19T15:38:57.214Z,98513.70
2018-10-19T15:41:29.530Z,98516.65
2018-10-19T15:44:01.878Z,98513.33
2018-10-19T15:46:34.336Z,98517.88
2018-10-19T15:49:06.654Z,98515.55
2018-10-19T15:51:38.954Z,98516.63
2018-10-19T15:54:11.379Z,98520.80
2018-10-19T15:56:43.814Z,98515.75
2018-10-19T15:59:16.309Z,98518.49
2018-10-19T16:01:48.643Z,98520.94
2018-10-19T16:04:20.970Z,98525.89
2018-10-19T16:06:53.314Z,98531.19
2018-10-19T16:09:25.630Z,98534.84
2018-10-19T16:11:58.154Z,98538.83
2018-10-19T16:14:30.417Z,98539.43
2018-10-19T16:17:02.828Z,98543.88
2018-10-19T16:19:35.156Z,98551.41
2018-10-19T16:22:07.901Z,98559.99
2018-10-19T16:24:40.271Z,98557.13
2018-10-19T16:27:12.777Z,98557.35
2018-10-19T16:29:45.082Z,98564.11
2018-10-19T16:32:17.436Z,98570.25
2018-10-19T16:34:49.800Z,98574.22
2018-10-19T16:37:22.082Z,98573.52
2018-10-19T16:39:54.400Z,98570.18
2018-10-19T16:42:26.818Z,98563.89
2018-10-19T16:44:59.178Z,98574.09
2018-10-19T16:47:31.617Z,98578.47
2018-10-19T16:50:04.261Z,98580.25
2018-10-19T16:52:36.715Z,98582.95
2018-10-19T16:55:09.016Z,98583.11
2018-10-19T16:57:41.331Z,98591.47
2018-10-19T17:00:13.731Z,98591.53
2018-10-19T17:02:46.031Z,98587.06
2018-10-19T17:05:18.488Z,98590.00
2018-10-19T17:07:50.724Z,98595.36
2018-10-19T17:10:23.106Z,98593.34
2018-10-19T17:12:55.539Z,98598.87
2018-10-19T17:15:27.984Z,98602.92
2018-10-19T17:18:00.405Z,98605.31
2018-10-19T17:20:32.818Z,98598.08
2018-10-19T17:23:05.294Z,98601.67
2018-10-19T17:25:37.846Z,98605.11
2018-10-19T17:28:10.173Z,98615.60
2018-10-19T17:30:42.558Z,98613.87
2018-10-19T17:33:15.014Z,98620.91
2018-10-19T17:35:47.390Z,98623.34
2018-10-19T17:38:19.733Z,98625.21
2018-10-19T17:40:52.057Z,98625.20
2018-10-19T17:43:24.481Z,98634.24
2018-10-19T17:45:56.902Z,98638.42
2018-10-19T17:48:29.209Z,98634.98
2018-10-19T17:51:02.044Z,98642.81
2018-10-19T17:53:34.389Z,98640.56
2018-10-19T17:56:06.754Z,98641.14
2018-10-19T17:58:39.143Z,98647.99
2018-10-19T18:01:11.578Z,98648.75
2018-10-19T18:03:43.939Z,98651.22
2018-10-19T18:06:16.486Z,98650.34
2018-10-19T18:08:48.888Z,98649.61
2018-10-19T18:11:21.308Z,98649.59
2018-10-19T18:13:53.615Z,98649.92
2018-10-19T18:16:26.005Z,98651.60
2018-10-19T18:18:58.338Z,98651.42
2018-10-19T18:21:31.162Z,98654.17
2018-10-19T18:24:03.729Z,98652.37
2018-10-19T18:26:36.116Z,98654.62
2018-10-19T18:29:08.556Z,98655.09
2018-10-19T18:31:40.952Z,98660.64
2018-10-19T18:34:13.437Z,98662.95
2018-10-19T18:36:46.062Z,98662.77
2018-10-19T18:39:18.527Z,98671.33
2018-10-19T18:41:50.877Z,98670.41
2018-10-19T18:44:23.244Z,98671.82
2018-10-19T18:46:55.758Z,98667.50
2018-10-19T18:49:28.149Z,98668.61
2018-10-19T18:52:00.477Z,98677.42
2018-10-19T18:54:32.873Z,98671.60
2018-10-19T18:57:05.311Z,98678.19
2018-10-19T18:59:38.003Z,98677.33
2018-10-19T19:02:10.671Z,98677.78
2018-10-19T19:04:42.991Z,98691.05
2018-10-19T19:07:15.748Z,98691.31
2018-10-19T19:09:54.067Z,98697.52
2018-10-19T19:12:26.809Z,98700.60
2018-10-19T19:14:59.174Z,98703.94
2018-10-19T19:17:31.644Z,98715.42
2018-10-19T19:20:10.757Z,98720.27
2018-10-19T19:22:43.562Z,98720.02
2018-10-19T19:26:22.367Z,98721.88
2018-10-19T19:28:55.092Z,98720.90
2018-10-19T19:31:27.510Z,98728.92
2018-10-19T19:34:05.433Z,98727.38
2018-10-19T19:36:37.975Z,98730.94
2018-10-19T19:39:10.456Z,98737.56
2018-10-19T19:41:48.556Z,98740.72
2018-10-19T19:44:20.986Z,98744.37
2018-10-19T19:46:53.425Z,98753.45
2018-10-19T19:49:31.440Z,98756.23
2018-10-19T19:52:03.817Z,98751.31
2018-10-19T19:54:36.201Z,98758.20
2018-10-19T19:57:08.779Z,98761.38
2018-10-19T19:59:41.115Z,98762.18
2018-10-19T20:02:13.549Z,98761.28
2018-10-19T20:04:45.908Z,98760.90
2018-10-19T20:07:18.237Z,98765.33
2018-10-19T20:09:50.625Z,98770.25
2018-10-19T20:12:23.253Z,98774.30
2018-10-19T20:14:55.490Z,98775.18
2018-10-19T20:17:27.858Z,98772.91
2018-10-19T20:20:00.256Z,98777.27
2018-10-19T20:22:32.721Z,98781.50
2018-10-19T20:25:06.032Z,98787.52
2018-10-19T20:27:39.065Z,98783.55
2018-10-19T20:30:12.865Z,98783.64
2018-10-19T20:32:45.242Z,98793.61
2018-10-19T20:35:17.636Z,98791.04
2018-10-19T20:37:50.221Z,98795.45
2018-10-19T20:40:22.785Z,98794.69
2018-10-19T20:42:55.248Z,98790.44
2018-10-19T20:45:27.774Z,98788.12
2018-10-19T20:48:00.125Z,98792.08
2018-10-19T20:50:32.507Z,98797.56
2018-10-19T20:53:04.943Z,98797.56
2018-10-19T20:55:37.336Z,98804.24
2018-10-19T20:58:09.774Z,98803.92
2018-10-19T21:00:42.398Z,98808.23
2018-10-19T21:03:14.706Z,98807.16
2018-10-19T21:05:47.044Z,98812.06
2018-10-19T21:08:19.633Z,98806.34
2018-10-19T21:10:52.047Z,98805.92
2018-10-19T21:13:24.460Z,98810.11
2018-10-19T21:15:56.777Z,98818.45
2018-10-19T21:18:29.252Z,98815.81
2018-10-19T21:21:01.592Z,98821.73
2018-10-19T21:23:33.989Z,98816.48
2018-10-19T21:26:06.494Z,98819.26
2018-10-19T21:28:38.896Z,98822.06
2018-10-19T21:31:11.254Z,98824.02
2018-10-19T21:33:43.599Z,98820.64
2018-10-19T21:36:15.928Z,98821.98
2018-10-19T21:38:48.380Z,98815.38
2018-10-19T21:41:20.837Z,98818.33
2018-10-19T21:43:53.159Z,98812.30
2018-10-19T21:46:25.562Z,98801.30
2018-10-19T21:48:58.757Z,98811.17
2018-10-19T21:51:31.209Z,98813.70
2018-10-19T21:54:03.895Z,98810.74
2018-10-19T21:56:36.257Z,98813.76
2018-10-19T21:59:08.564Z,98820.98
2018-10-19T22:01:41.279Z,98823.27
2018-10-19T22:04:13.718Z,98827.09
2018-10-19T22:06:46.210Z,98822.05
2018-10-19T22:09:18.628Z,98820.78
2018-10-19T22:11:50.990Z,98825.81
2018-10-19T22:14:23.342Z,98827.19
2018-10-19T22:16:55.930Z,98824.29
2018-10-19T22:19:28.209Z,98827.91
2018-10-19T22:22:00.509Z,98829.58
2018-10-19T22:24:32.889Z,98828.92
2018-10-19T22:27:05.311Z,98833.09
2018-10-19T22:29:37.646Z,98843.19
2018-10-19T22:32:09.989Z,98831.03
2018-10-19T22:34:42.262Z,98839.98
2018-10-19T22:37:14.666Z,98843.11
2018-10-19T22:39:46.925Z,98842.41
2018-10-19T22:42:19.200Z,98838.27
2018-10-19T22:44:51.819Z,98834.25
2018-10-19T22:47:24.081Z,98839.41
2018-10-19T22:49:56.493Z,98839.15
2018-10-19T22:52:28.801Z,98841.80
2018-10-19T22:55:01.297Z,98836.81
2018-10-19T22:57:33.896Z,98836.06
2018-10-19T23:00:07.046Z,98837.03
2018-10-19T23:02:39.381Z,98840.34
2018-10-19T23:05:11.780Z,98838.62
2018-10-19T23:07:44.242Z,98830.91
2018-10-19T23:10:16.639Z,98841.87
2018-10-19T23:12:49.003Z,98846.90
2018-10-19T23:15:21.406Z,98843.06
2018-10-19T23:17:53.785Z,98848.70
2018-10-19T23:20:26.073Z,98844.17
2018-10-19T23:22:58.512Z,98849.84
2018-10-19T23:25:30.787Z,98855.13
2018-10-19T23:28:03.073Z,98860.25
2018-10-19T23:30:35.394Z,98861.84
2018-10-19T23:33:07.725Z,98856.50
2018-10-19T23:35:40.029Z,98856.73
2018-10-19T23:38:12.392Z,98857.02
2018-10-19T23:40:44.649Z,98853.29
2018-10-19T23:43:17.017Z,98851.07
2018-10-19T23:45:49.430Z,98844.15
2018-10-19T23:48:21.819Z,98842.84
2018-10-19T23:50:54.081Z,98848.67
2018-10-19T23:53:26.465Z,98851.72
2018-10-19T23:55:58.723Z,98843.05
2018-10-19T23:58:31.049Z,98853.69
